createdAt,value
2023-06-29T00:01:24.786Z,84.60
2023-06-29T00:04:11.223Z,85.40
2023-06-29T00:06:57.218Z,85.70
2023-06-29T00:09:43.155Z,86.00
2023-06-29T00:12:29.386Z,86.00
2023-06-29T00:15:15.536Z,86.80
2023-06-29T00:18:01.635Z,87.00
2023-06-29T00:20:47.826Z,87.60
2023-06-29T00:23:35.709Z,87.80
2023-06-29T00:26:22.575Z,88.10
2023-06-29T00:29:08.554Z,88.40
2023-06-29T00:31:55.616Z,88.10
2023-06-29T00:34:41.660Z,87.60
2023-06-29T00:37:27.646Z,87.50
2023-06-29T00:40:13.897Z,88.70
2023-06-29T00:43:00.503Z,88.80
2023-06-29T00:45:46.224Z,88.80
2023-06-29T00:48:32.146Z,89.20
2023-06-29T00:51:19.247Z,89.50
2023-06-29T00:54:05.659Z,89.80
2023-06-29T00:56:53.737Z,90.00
2023-06-29T00:59:39.981Z,90.10
2023-06-29T01:02:26.434Z,90.10
2023-06-29T01:05:14.803Z,90.40
2023-06-29T01:08:10.529Z,90.60
2023-06-29T01:11:02.454Z,90.50
2023-06-29T01:13:49.519Z,90.60
2023-06-29T01:16:38.235Z,90.80
2023-06-29T01:19:31.002Z,91.00
2023-06-29T01:22:46.416Z,91.20
2023-06-29T01:25:36.343Z,91.40
2023-06-29T01:28:23.163Z,91.60
2023-06-29T01:31:10.792Z,91.90
2023-06-29T01:33:57.627Z,92.10
2023-06-29T01:36:47.570Z,91.90
2023-06-29T01:39:43.737Z,91.60
2023-06-29T01:42:32.580Z,91.70
2023-06-29T01:45:21.862Z,92.00
2023-06-29T01:48:08.389Z,92.30
2023-06-29T01:50:54.765Z,92.50
2023-06-29T01:53:40.694Z,92.60
2023-06-29T01:56:26.656Z,92.80
2023-06-29T01:59:12.742Z,92.80
2023-06-29T02:01:58.787Z,92.70
2023-06-29T02:04:45.120Z,92.90
2023-06-29T02:07:31.444Z,93.00
2023-06-29T02:10:17.582Z,93.10
2023-06-29T02:13:05.377Z,93.30
2023-06-29T02:15:51.123Z,93.40
2023-06-29T02:18:37.119Z,93.70
2023-06-29T02:21:23.137Z,94.00
2023-06-29T02:24:09.281Z,93.90
2023-06-29T02:26:55.280Z,93.80
2023-06-29T02:29:41.134Z,93.90
2023-06-29T02:32:27.131Z,94.20
2023-06-29T02:35:14.149Z,94.60
2023-06-29T02:38:00.245Z,94.80
2023-06-29T02:40:46.979Z,95.10
2023-06-29T02:43:34.889Z,95.00
2023-06-29T02:46:21.279Z,95.10
2023-06-29T02:49:08.183Z,95.00
2023-06-29T02:51:55.812Z,94.90
2023-06-29T02:54:41.843Z,94.90
2023-06-29T02:57:27.760Z,94.90
2023-06-29T03:00:14.317Z,94.80
2023-06-29T03:03:00.853Z,95.10
2023-06-29T03:05:47.205Z,95.20
2023-06-29T03:08:33.156Z,95.40
2023-06-29T03:11:19.062Z,95.70
2023-06-29T03:14:05.102Z,95.80
2023-06-29T03:16:51.239Z,95.90
2023-06-29T03:19:37.300Z,95.70
2023-06-29T03:22:24.345Z,95.80
2023-06-29T03:25:13.798Z,95.90
2023-06-29T03:28:00.158Z,96.00
2023-06-29T03:30:46.509Z,96.20
2023-06-29T03:33:32.851Z,96.70
2023-06-29T03:36:20.251Z,96.70
2023-06-29T03:39:06.449Z,96.70
2023-06-29T03:41:52.553Z,96.70
2023-06-29T03:44:40.684Z,96.70
2023-06-29T03:47:26.774Z,96.70
2023-06-29T03:50:13.095Z,96.70
2023-06-29T03:52:59.134Z,96.60
2023-06-29T03:55:45.374Z,96.60
2023-06-29T03:58:31.398Z,96.80
2023-06-29T04:01:17.457Z,96.60
2023-06-29T04:04:04.163Z,96.70
2023-06-29T04:06:50.461Z,96.90
2023-06-29T04:09:36.517Z,97.00
2023-06-29T04:12:22.923Z,97.00
2023-06-29T04:15:09.794Z,97.00
2023-06-29T04:17:56.168Z,96.90
2023-06-29T04:20:42.478Z,97.00
2023-06-29T04:23:28.666Z,97.00
2023-06-29T04:26:15.936Z,97.20
2023-06-29T04:29:03.693Z,97.30
2023-06-29T04:31:49.908Z,97.20
2023-06-29T04:34:36.000Z,97.10
2023-06-29T04:37:22.085Z,96.90
2023-06-29T04:40:10.725Z,96.80
2023-06-29T04:42:59.568Z,96.90
2023-06-29T04:45:47.236Z,96.80
2023-06-29T04:48:39.779Z,96.70
2023-06-29T04:51:27.391Z,96.50
2023-06-29T04:54:13.722Z,96.30
2023-06-29T04:57:00.644Z,96.30
2023-06-29T04:59:47.116Z,96.20
2023-06-29T05:02:33.104Z,96.10
2023-06-29T05:05:19.871Z,95.90
2023-06-29T05:08:07.343Z,95.80
2023-06-29T05:10:53.370Z,95.40
2023-06-29T05:13:39.454Z,95.40
2023-06-29T05:16:25.443Z,95.40
2023-06-29T05:19:11.898Z,95.30
2023-06-29T05:21:57.850Z,95.20
2023-06-29T05:24:43.801Z,95.20
2023-06-29T05:27:29.907Z,95.10
2023-06-29T05:30:17.528Z,95.30
2023-06-29T05:33:04.682Z,95.20
2023-06-29T05:35:50.649Z,95.00
2023-06-29T05:38:36.750Z,95.00
2023-06-29T05:41:22.836Z,95.00
2023-06-29T05:44:10.001Z,95.00
2023-06-29T05:46:56.136Z,95.00
2023-06-29T05:49:43.757Z,94.70
2023-06-29T05:52:30.004Z,94.60
2023-06-29T05:55:16.119Z,94.40
2023-06-29T05:58:02.341Z,94.10
2023-06-29T06:00:48.524Z,94.00
2023-06-29T06:03:34.751Z,94.00
2023-06-29T06:06:20.862Z,94.00
2023-06-29T06:09:07.722Z,93.60
2023-06-29T06:11:56.002Z,93.50
2023-06-29T06:14:42.252Z,93.20
2023-06-29T06:17:28.196Z,92.60
2023-06-29T06:20:14.502Z,92.30
2023-06-29T06:23:00.603Z,91.50
2023-06-29T06:25:46.592Z,91.70
2023-06-29T06:28:33.167Z,91.80
2023-06-29T06:31:32.516Z,91.30
2023-06-29T06:34:19.286Z,91.10
2023-06-29T06:37:06.505Z,90.50
2023-06-29T06:39:52.447Z,90.20
2023-06-29T06:42:42.038Z,90.10
2023-06-29T06:45:27.717Z,89.10
2023-06-29T06:48:13.879Z,83.30
2023-06-29T06:50:59.945Z,81.20
2023-06-29T06:53:46.011Z,79.80
2023-06-29T06:56:32.336Z,79.00
2023-06-29T06:59:18.231Z,78.30
2023-06-29T07:02:05.907Z,77.70
2023-06-29T07:04:52.498Z,76.30
2023-06-29T07:07:38.650Z,76.30
2023-06-29T07:10:24.968Z,74.90
2023-06-29T07:13:11.179Z,74.60
2023-06-29T07:15:58.292Z,71.70
2023-06-29T07:21:16.836Z,72.10
2023-06-29T07:24:59.732Z,69.70
2023-06-29T07:27:46.330Z,70.70
2023-06-29T07:30:32.659Z,70.30
2023-06-29T07:33:18.556Z,68.40
2023-06-29T07:36:06.122Z,68.00
2023-06-29T07:38:52.432Z,65.60
2023-06-29T07:41:39.209Z,65.50
2023-06-29T07:44:25.410Z,65.30
2023-06-29T07:47:11.574Z,63.00
2023-06-29T07:49:57.969Z,60.60
2023-06-29T07:52:44.193Z,62.00
2023-06-29T07:55:30.205Z,63.10
2023-06-29T08:01:05.495Z,64.00
2023-06-29T08:04:02.238Z,63.30
2023-06-29T08:06:51.830Z,63.60
2023-06-29T08:09:38.838Z,62.40
2023-06-29T08:12:26.153Z,59.80
2023-06-29T08:15:12.222Z,58.70
2023-06-29T08:17:58.588Z,58.00
2023-06-29T08:20:47.356Z,58.80
2023-06-29T08:23:34.254Z,59.50
2023-06-29T08:26:20.616Z,58.40
2023-06-29T08:29:06.787Z,57.10
2023-06-29T08:31:53.183Z,56.70
2023-06-29T08:34:39.461Z,57.00
2023-06-29T08:37:25.425Z,55.70
2023-06-29T08:40:12.505Z,54.40
2023-06-29T08:42:58.521Z,55.10
2023-06-29T08:45:44.894Z,54.60
2023-06-29T08:48:32.728Z,54.50
2023-06-29T08:51:21.435Z,53.70
2023-06-29T08:54:09.368Z,53.60
2023-06-29T08:56:55.807Z,54.30
2023-06-29T08:59:42.389Z,52.40
2023-06-29T09:02:29.285Z,52.20
2023-06-29T09:05:15.883Z,51.70
2023-06-29T09:08:02.468Z,51.90
2023-06-29T09:10:48.825Z,51.00
2023-06-29T09:13:34.836Z,51.50
2023-06-29T09:16:22.493Z,52.40
2023-06-29T09:19:09.484Z,52.80
2023-06-29T09:21:55.603Z,51.80
2023-06-29T09:24:56.924Z,52.80
2023-06-29T09:27:47.853Z,52.50
2023-06-29T09:30:41.533Z,51.40
2023-06-29T09:33:27.913Z,50.50
2023-06-29T09:36:14.043Z,50.50
2023-06-29T09:39:05.455Z,50.70
2023-06-29T09:41:54.468Z,50.30
2023-06-29T09:44:45.421Z,49.50
2023-06-29T09:50:23.596Z,49.70
2023-06-29T09:53:10.941Z,49.80
2023-06-29T09:55:59.591Z,49.70
2023-06-29T09:58:47.437Z,48.60
2023-06-29T10:01:34.049Z,48.30
2023-06-29T10:04:20.483Z,48.20
2023-06-29T10:07:09.988Z,49.10
2023-06-29T10:09:57.888Z,47.90
2023-06-29T10:12:43.945Z,48.20
2023-06-29T10:15:30.696Z,47.60
2023-06-29T10:18:28.446Z,47.20
2023-06-29T10:21:15.862Z,47.10
2023-06-29T10:24:03.744Z,46.90
2023-06-29T10:26:50.750Z,47.00
2023-06-29T10:29:47.040Z,45.70
2023-06-29T10:32:34.646Z,45.80
2023-06-29T10:35:26.986Z,46.60
2023-06-29T10:38:13.496Z,46.40
2023-06-29T10:41:00.573Z,45.60
2023-06-29T10:44:01.255Z,46.40
2023-06-29T10:46:51.136Z,44.60
2023-06-29T10:49:37.523Z,45.30
2023-06-29T10:52:24.038Z,45.20
2023-06-29T10:55:42.240Z,44.80
2023-06-29T10:58:36.216Z,44.20
2023-06-29T11:01:22.643Z,44.80
2023-06-29T11:04:08.918Z,44.20
2023-06-29T11:06:55.330Z,44.40
2023-06-29T11:09:41.380Z,43.60
2023-06-29T11:12:27.293Z,43.10
2023-06-29T11:18:21.263Z,42.80
2023-06-29T11:21:08.033Z,42.90
2023-06-29T11:23:54.342Z,42.60
2023-06-29T11:26:40.556Z,42.40
2023-06-29T11:29:27.995Z,42.40
2023-06-29T11:32:14.293Z,42.70
2023-06-29T11:35:04.420Z,43.30
2023-06-29T11:37:57.231Z,43.40
2023-06-29T11:40:43.616Z,43.60
2023-06-29T11:43:32.909Z,42.20
2023-06-29T11:46:19.362Z,41.70
2023-06-29T11:49:06.829Z,42.40
2023-06-29T11:51:53.361Z,42.40
2023-06-29T11:54:40.159Z,42.10
2023-06-29T11:57:26.035Z,42.30
2023-06-29T12:00:15.016Z,41.80
2023-06-29T12:03:08.170Z,42.00
2023-06-29T12:05:54.383Z,41.00
2023-06-29T12:08:42.307Z,41.50
2023-06-29T12:11:29.582Z,41.40
2023-06-29T12:14:15.690Z,41.70
2023-06-29T12:20:08.989Z,40.90
2023-06-29T12:22:56.700Z,41.40
2023-06-29T12:25:44.796Z,41.10
2023-06-29T12:28:32.328Z,41.90
2023-06-29T12:31:29.170Z,42.30
2023-06-29T12:34:16.887Z,41.50
2023-06-29T12:37:03.789Z,41.70
2023-06-29T12:39:50.114Z,40.60
2023-06-29T12:42:38.728Z,41.90
2023-06-29T12:45:24.848Z,41.10
2023-06-29T12:48:10.679Z,40.50
2023-06-29T12:51:01.031Z,40.60
2023-06-29T12:53:47.119Z,41.00
2023-06-29T12:56:33.007Z,41.00
2023-06-29T12:59:18.985Z,41.60
2023-06-29T13:02:06.477Z,41.60
2023-06-29T13:04:52.763Z,41.10
2023-06-29T13:07:38.517Z,41.90
2023-06-29T13:10:24.712Z,41.30
2023-06-29T13:13:10.840Z,41.60
2023-06-29T13:15:57.177Z,41.00
2023-06-29T13:18:43.125Z,41.80
2023-06-29T13:21:29.040Z,41.60
2023-06-29T13:24:15.130Z,40.70
2023-06-29T13:27:05.794Z,40.00
2023-06-29T13:29:52.066Z,39.80
2023-06-29T13:32:38.441Z,40.20
2023-06-29T13:35:25.119Z,39.80
2023-06-29T13:38:11.439Z,40.00
2023-06-29T13:40:57.379Z,40.10
2023-06-29T13:43:43.269Z,40.90
2023-06-29T13:46:29.187Z,41.20
2023-06-29T13:49:16.769Z,40.80
2023-06-29T13:52:03.231Z,41.50
2023-06-29T13:54:49.458Z,41.30
2023-06-29T13:57:35.401Z,41.20
2023-06-29T14:00:22.469Z,41.50
2023-06-29T14:03:08.397Z,41.30
2023-06-29T14:05:54.597Z,40.70
2023-06-29T14:08:40.907Z,41.30
2023-06-29T14:11:28.899Z,41.00
2023-06-29T14:14:14.800Z,40.90
2023-06-29T14:17:00.732Z,41.30
2023-06-29T14:19:47.151Z,40.00
2023-06-29T14:22:34.142Z,40.50
2023-06-29T14:25:20.402Z,40.20
2023-06-29T14:28:06.267Z,40.50
2023-06-29T14:30:52.544Z,41.30
2023-06-29T14:33:38.742Z,40.10
2023-06-29T14:36:24.868Z,39.50
2023-06-29T14:39:11.411Z,39.90
2023-06-29T14:41:57.738Z,39.80
2023-06-29T14:44:45.127Z,40.30
2023-06-29T14:47:31.354Z,40.50
2023-06-29T14:50:17.248Z,40.80
2023-06-29T14:53:04.094Z,40.00
2023-06-29T14:55:50.786Z,40.50
2023-06-29T14:58:37.745Z,41.10
2023-06-29T15:01:23.947Z,41.20
2023-06-29T15:04:11.681Z,41.10
2023-06-29T15:06:57.776Z,40.30
2023-06-29T15:09:44.516Z,40.50
2023-06-29T15:12:30.705Z,41.20
2023-06-29T15:15:16.706Z,40.40
2023-06-29T15:18:03.035Z,41.10
2023-06-29T15:20:49.748Z,41.40
2023-06-29T15:23:36.040Z,41.20
2023-06-29T15:26:23.945Z,40.70
2023-06-29T15:29:10.028Z,41.00
2023-06-29T15:31:56.088Z,41.00
2023-06-29T15:34:42.526Z,40.70
2023-06-29T15:37:28.762Z,41.20
2023-06-29T15:40:15.489Z,41.20
2023-06-29T15:43:01.782Z,41.30
2023-06-29T15:45:47.950Z,41.70
2023-06-29T15:48:34.409Z,41.80
2023-06-29T15:51:21.489Z,41.40
2023-06-29T15:54:07.567Z,41.60
2023-06-29T15:56:53.447Z,41.20
2023-06-29T15:59:39.492Z,41.40
2023-06-29T16:02:25.375Z,41.60
2023-06-29T16:05:11.749Z,41.30
2023-06-29T16:07:58.520Z,41.70
2023-06-29T16:10:44.702Z,42.00
2023-06-29T16:13:31.205Z,41.80
2023-06-29T16:16:18.190Z,42.70
2023-06-29T16:19:04.570Z,41.90
2023-06-29T16:21:50.520Z,42.20
2023-06-29T16:24:36.325Z,41.90
2023-06-29T16:27:22.413Z,42.20
2023-06-29T16:30:10.276Z,42.00
2023-06-29T16:32:56.107Z,42.20
2023-06-29T16:35:44.910Z,42.40
2023-06-29T16:38:31.664Z,42.10
2023-06-29T16:41:18.756Z,42.30
2023-06-29T16:44:05.375Z,42.70
2023-06-29T16:46:53.317Z,42.60
2023-06-29T16:49:40.657Z,42.50
2023-06-29T16:52:26.708Z,42.40
2023-06-29T16:55:12.690Z,42.60
2023-06-29T16:57:58.695Z,42.80
2023-06-29T17:00:45.331Z,42.50
2023-06-29T17:03:31.222Z,42.40
2023-06-29T17:06:17.703Z,42.50
2023-06-29T17:09:03.779Z,42.90
2023-06-29T17:11:49.854Z,42.80
2023-06-29T17:14:35.927Z,43.00
2023-06-29T17:17:21.799Z,42.90
2023-06-29T17:20:08.712Z,43.00
2023-06-29T17:22:55.079Z,43.10
2023-06-29T17:25:51.526Z,43.20
2023-06-29T17:28:37.814Z,43.20
2023-06-29T17:31:25.533Z,43.40
2023-06-29T17:34:11.811Z,43.70
2023-06-29T17:36:59.698Z,43.80
2023-06-29T17:39:45.479Z,43.60
2023-06-29T17:42:32.962Z,43.70
2023-06-29T17:45:19.138Z,43.70
2023-06-29T17:48:09.581Z,43.60
2023-06-29T17:50:56.130Z,43.80
2023-06-29T17:53:43.920Z,44.20
2023-06-29T17:56:31.682Z,44.30
2023-06-29T17:59:17.661Z,44.20
2023-06-29T18:02:04.105Z,44.10
2023-06-29T18:04:50.289Z,44.50
2023-06-29T18:07:36.386Z,44.60
2023-06-29T18:10:22.716Z,44.60
2023-06-29T18:13:08.755Z,44.70
2023-06-29T18:15:55.395Z,44.70
2023-06-29T18:18:41.261Z,45.10
2023-06-29T18:21:27.137Z,45.10
2023-06-29T18:24:13.187Z,45.10
2023-06-29T18:26:59.107Z,45.40
2023-06-29T18:29:45.058Z,45.40
2023-06-29T18:32:30.911Z,45.80
2023-06-29T18:35:16.757Z,45.90
2023-06-29T18:38:02.844Z,46.00
2023-06-29T18:40:48.929Z,46.90
2023-06-29T18:43:34.884Z,46.60
2023-06-29T18:46:20.997Z,46.60
2023-06-29T18:49:07.266Z,46.70
2023-06-29T18:51:53.390Z,46.90
2023-06-29T18:54:39.428Z,47.00
2023-06-29T18:57:25.380Z,47.10
2023-06-29T19:00:11.848Z,47.10
2023-06-29T19:02:57.959Z,47.40
2023-06-29T19:05:44.506Z,47.50
2023-06-29T19:08:31.406Z,47.60
2023-06-29T19:11:17.541Z,47.60
2023-06-29T19:14:03.484Z,47.80
2023-06-29T19:16:49.515Z,47.80
2023-06-29T19:19:35.957Z,48.00
2023-06-29T19:22:21.873Z,48.20
2023-06-29T19:25:08.333Z,48.40
2023-06-29T19:27:54.204Z,48.60
2023-06-29T19:30:40.315Z,48.60
2023-06-29T19:33:26.356Z,48.60
2023-06-29T19:36:12.285Z,48.60
2023-06-29T19:38:58.652Z,48.70
2023-06-29T19:41:44.540Z,49.20
2023-06-29T19:44:30.410Z,49.70
2023-06-29T19:47:16.397Z,50.40
2023-06-29T19:50:02.319Z,51.80
2023-06-29T19:52:48.654Z,52.10
2023-06-29T19:55:36.395Z,51.60
2023-06-29T19:58:25.684Z,50.70
2023-06-29T20:01:11.724Z,50.90
2023-06-29T20:04:02.302Z,50.50
2023-06-29T20:06:48.972Z,50.80
2023-06-29T20:09:35.236Z,51.10
2023-06-29T20:12:21.195Z,51.60
2023-06-29T20:15:09.612Z,51.60
2023-06-29T20:17:55.671Z,51.60
2023-06-29T20:20:42.026Z,52.20
2023-06-29T20:23:27.978Z,53.40
2023-06-29T20:26:14.069Z,54.20
2023-06-29T20:29:00.790Z,54.50
2023-06-29T20:31:46.877Z,54.80
2023-06-29T20:34:32.815Z,55.00
2023-06-29T20:37:18.811Z,54.60
2023-06-29T20:40:05.399Z,54.90
2023-06-29T20:42:51.677Z,54.40
2023-06-29T20:45:38.451Z,54.40
2023-06-29T20:48:24.522Z,54.20
2023-06-29T20:51:17.586Z,56.00
2023-06-29T20:54:04.555Z,56.50
2023-06-29T20:56:50.905Z,56.30
2023-06-29T20:59:37.158Z,56.70
2023-06-29T21:02:25.242Z,56.90
2023-06-29T21:05:11.664Z,56.30
2023-06-29T21:07:58.178Z,56.60
2023-06-29T21:10:44.255Z,56.10
2023-06-29T21:13:30.458Z,56.10
2023-06-29T21:16:16.894Z,56.60
2023-06-29T21:19:02.898Z,57.50
2023-06-29T21:21:49.200Z,57.00
2023-06-29T21:24:35.604Z,56.90
2023-06-29T21:27:21.932Z,57.10
2023-06-29T21:30:10.731Z,58.10
2023-06-29T21:32:57.115Z,58.00
2023-06-29T21:35:43.836Z,58.60
2023-06-29T21:38:32.237Z,58.60
2023-06-29T21:41:18.835Z,59.00
2023-06-29T21:44:05.377Z,60.10
2023-06-29T21:46:52.042Z,60.50
2023-06-29T21:49:39.103Z,60.20
2023-06-29T21:52:25.458Z,60.20
2023-06-29T21:55:11.555Z,59.90
2023-06-29T21:57:57.623Z,60.20
2023-06-29T22:00:43.665Z,60.00
2023-06-29T22:03:30.654Z,60.40
2023-06-29T22:06:16.804Z,60.60
2023-06-29T22:09:03.969Z,61.90
2023-06-29T22:11:50.101Z,62.10
2023-06-29T22:14:36.101Z,62.80
2023-06-29T22:17:23.034Z,62.10
2023-06-29T22:20:17.057Z,62.40
2023-06-29T22:23:03.694Z,63.00
2023-06-29T22:25:49.789Z,63.80
2023-06-29T22:28:35.607Z,63.80
2023-06-29T22:31:22.130Z,64.10
2023-06-29T22:34:08.607Z,64.70
2023-06-29T22:36:54.553Z,63.80
2023-06-29T22:39:43.118Z,63.40
2023-06-29T22:42:29.404Z,63.30
2023-06-29T22:45:15.267Z,63.30
2023-06-29T22:48:03.183Z,63.30
2023-06-29T22:50:50.147Z,63.40
2023-06-29T22:53:36.437Z,63.40
2023-06-29T22:56:23.038Z,63.50
2023-06-29T22:59:10.796Z,63.70
2023-06-29T23:01:57.004Z,64.60
2023-06-29T23:04:44.200Z,64.60
2023-06-29T23:07:31.085Z,65.00
2023-06-29T23:10:17.516Z,64.90
2023-06-29T23:13:03.729Z,64.90
2023-06-29T23:15:49.975Z,66.20
2023-06-29T23:18:35.995Z,67.10
2023-06-29T23:21:22.351Z,66.80
2023-06-29T23:24:10.041Z,66.20
2023-06-29T23:26:56.261Z,66.70
2023-06-29T23:29:42.275Z,66.70
2023-06-29T23:32:28.385Z,66.60
2023-06-29T23:35:14.335Z,66.20
2023-06-29T23:38:00.298Z,66.20
2023-06-29T23:40:46.124Z,66.10
2023-06-29T23:43:31.965Z,66.10
2023-06-29T23:46:18.452Z,65.90
2023-06-29T23:49:06.760Z,65.70
2023-06-29T23:51:52.841Z,65.80
2023-06-29T23:54:39.175Z,65.50
2023-06-29T23:57:24.909Z,65.30
